sensor_id;sensor_type;location;lat;lon;timestamp;P1;durP1;ratioP1;P2;durP2;ratioP2
33876;SDS011;20166;51.738;7.158;2023-10-08T00:00:33;7.63;;;4.80;;
33876;SDS011;20166;51.738;7.158;2023-10-08T00:03:31;8.97;;;4.40;;
33876;SDS011;20166;51.738;7.158;2023-10-08T00:06:18;10.83;;;5.10;;
33876;SDS011;20166;51.738;7.158;2023-10-08T00:09:06;9.87;;;4.60;;
33876;SDS011;20166;51.738;7.158;2023-10-08T00:11:53;6.90;;;4.27;;
33876;SDS011;20166;51.738;7.158;2023-10-08T00:14:40;10.13;;;4.93;;
33876;SDS011;20166;51.738;7.158;2023-10-08T00:17:31;11.20;;;4.47;;
33876;SDS011;20166;51.738;7.158;2023-10-08T00:20:17;8.20;;;4.80;;
33876;SDS011;20166;51.738;7.158;2023-10-08T00:23:13;9.83;;;4.57;;
33876;SDS011;20166;51.738;7.158;2023-10-08T00:26:02;9.33;;;4.87;;
33876;SDS011;20166;51.738;7.158;2023-10-08T00:28:51;9.33;;;5.10;;
33876;SDS011;20166;51.738;7.158;2023-10-08T00:31:37;9.17;;;4.40;;
33876;SDS011;20166;51.738;7.158;2023-10-08T00:34:27;10.80;;;5.00;;
33876;SDS011;20166;51.738;7.158;2023-10-08T00:37:14;10.23;;;4.23;;
33876;SDS011;20166;51.738;7.158;2023-10-08T00:40:00;8.50;;;4.40;;
33876;SDS011;20166;51.738;7.158;2023-10-08T00:42:49;10.57;;;4.80;;
33876;SDS011;20166;51.738;7.158;2023-10-08T00:45:41;6.80;;;4.33;;
33876;SDS011;20166;51.738;7.158;2023-10-08T00:48:30;11.33;;;4.97;;
33876;SDS011;20166;51.738;7.158;2023-10-08T00:51:22;9.40;;;4.53;;
33876;SDS011;20166;51.738;7.158;2023-10-08T00:54:16;9.30;;;4.47;;
33876;SDS011;20166;51.738;7.158;2023-10-08T00:57:04;10.00;;;4.57;;
33876;SDS011;20166;51.738;7.158;2023-10-08T00:59:50;10.07;;;4.60;;
33876;SDS011;20166;51.738;7.158;2023-10-08T01:02:38;8.00;;;4.43;;
33876;SDS011;20166;51.738;7.158;2023-10-08T01:05:30;9.80;;;5.00;;
33876;SDS011;20166;51.738;7.158;2023-10-08T01:08:35;12.67;;;5.47;;
33876;SDS011;20166;51.738;7.158;2023-10-08T01:11:23;12.43;;;4.83;;
33876;SDS011;20166;51.738;7.158;2023-10-08T01:14:18;12.77;;;4.57;;
33876;SDS011;20166;51.738;7.158;2023-10-08T01:17:16;9.43;;;4.50;;
33876;SDS011;20166;51.738;7.158;2023-10-08T01:20:04;10.77;;;4.50;;
33876;SDS011;20166;51.738;7.158;2023-10-08T01:23:06;10.43;;;4.60;;
33876;SDS011;20166;51.738;7.158;2023-10-08T01:25:58;7.60;;;4.60;;
33876;SDS011;20166;51.738;7.158;2023-10-08T01:28:56;12.03;;;4.80;;
33876;SDS011;20166;51.738;7.158;2023-10-08T01:31:42;10.00;;;4.77;;
33876;SDS011;20166;51.738;7.158;2023-10-08T01:34:29;9.43;;;4.83;;
33876;SDS011;20166;51.738;7.158;2023-10-08T01:37:20;10.70;;;5.17;;
33876;SDS011;20166;51.738;7.158;2023-10-08T01:40:09;10.83;;;4.40;;
33876;SDS011;20166;51.738;7.158;2023-10-08T01:42:56;6.57;;;4.90;;
33876;SDS011;20166;51.738;7.158;2023-10-08T01:45:45;9.03;;;4.77;;
33876;SDS011;20166;51.738;7.158;2023-10-08T01:48:33;11.30;;;4.87;;
33876;SDS011;20166;51.738;7.158;2023-10-08T01:51:23;9.77;;;4.83;;
33876;SDS011;20166;51.738;7.158;2023-10-08T01:54:20;9.07;;;4.80;;
33876;SDS011;20166;51.738;7.158;2023-10-08T01:57:11;10.03;;;4.47;;
33876;SDS011;20166;51.738;7.158;2023-10-08T01:59:59;11.23;;;5.00;;
33876;SDS011;20166;51.738;7.158;2023-10-08T02:02:45;8.50;;;4.80;;
33876;SDS011;20166;51.738;7.158;2023-10-08T02:05:32;8.10;;;4.90;;
33876;SDS011;20166;51.738;7.158;2023-10-08T02:08:19;6.90;;;4.07;;
33876;SDS011;20166;51.738;7.158;2023-10-08T02:11:06;8.93;;;5.20;;
33876;SDS011;20166;51.738;7.158;2023-10-08T02:13:54;11.67;;;5.30;;
33876;SDS011;20166;51.738;7.158;2023-10-08T02:16:42;11.53;;;5.20;;
33876;SDS011;20166;51.738;7.158;2023-10-08T02:19:28;10.57;;;5.43;;
33876;SDS011;20166;51.738;7.158;2023-10-08T02:22:15;11.47;;;5.10;;
33876;SDS011;20166;51.738;7.158;2023-10-08T02:25:01;11.10;;;5.20;;
33876;SDS011;20166;51.738;7.158;2023-10-08T02:27:48;12.30;;;5.53;;
33876;SDS011;20166;51.738;7.158;2023-10-08T02:30:36;11.70;;;4.80;;
33876;SDS011;20166;51.738;7.158;2023-10-08T02:33:25;9.13;;;5.30;;
33876;SDS011;20166;51.738;7.158;2023-10-08T02:36:12;10.93;;;5.17;;
33876;SDS011;20166;51.738;7.158;2023-10-08T02:38:59;10.40;;;4.53;;
33876;SDS011;20166;51.738;7.158;2023-10-08T02:41:51;9.60;;;5.20;;
33876;SDS011;20166;51.738;7.158;2023-10-08T02:44:41;11.13;;;5.30;;
33876;SDS011;20166;51.738;7.158;2023-10-08T02:47:29;12.30;;;5.23;;
33876;SDS011;20166;51.738;7.158;2023-10-08T02:50:17;9.80;;;4.67;;
33876;SDS011;20166;51.738;7.158;2023-10-08T02:53:03;9.40;;;5.00;;
33876;SDS011;20166;51.738;7.158;2023-10-08T02:55:56;9.30;;;4.80;;
33876;SDS011;20166;51.738;7.158;2023-10-08T02:58:42;10.97;;;5.07;;
33876;SDS011;20166;51.738;7.158;2023-10-08T03:01:29;13.23;;;4.70;;
33876;SDS011;20166;51.738;7.158;2023-10-08T03:04:20;11.00;;;4.80;;
33876;SDS011;20166;51.738;7.158;2023-10-08T03:07:07;13.20;;;4.87;;
33876;SDS011;20166;51.738;7.158;2023-10-08T03:09:57;13.37;;;4.70;;
33876;SDS011;20166;51.738;7.158;2023-10-08T03:12:51;10.43;;;4.80;;
33876;SDS011;20166;51.738;7.158;2023-10-08T03:15:40;11.40;;;4.90;;
33876;SDS011;20166;51.738;7.158;2023-10-08T03:18:31;9.53;;;4.97;;
33876;SDS011;20166;51.738;7.158;2023-10-08T03:21:22;9.23;;;5.17;;
33876;SDS011;20166;51.738;7.158;2023-10-08T03:24:29;11.33;;;4.80;;
33876;SDS011;20166;51.738;7.158;2023-10-08T03:27:22;12.60;;;5.10;;
33876;SDS011;20166;51.738;7.158;2023-10-08T03:30:11;9.40;;;4.80;;
33876;SDS011;20166;51.738;7.158;2023-10-08T03:32:59;14.20;;;5.20;;
33876;SDS011;20166;51.738;7.158;2023-10-08T03:35:49;11.13;;;4.63;;
33876;SDS011;20166;51.738;7.158;2023-10-08T03:38:39;8.57;;;4.90;;
33876;SDS011;20166;51.738;7.158;2023-10-08T03:41:35;10.93;;;4.70;;
33876;SDS011;20166;51.738;7.158;2023-10-08T03:44:24;11.03;;;5.50;;
33876;SDS011;20166;51.738;7.158;2023-10-08T03:47:14;11.73;;;4.67;;
33876;SDS011;20166;51.738;7.158;2023-10-08T03:50:04;12.37;;;5.17;;
33876;SDS011;20166;51.738;7.158;2023-10-08T03:52:52;12.53;;;4.90;;
33876;SDS011;20166;51.738;7.158;2023-10-08T03:55:41;13.67;;;4.33;;
33876;SDS011;20166;51.738;7.158;2023-10-08T03:58:27;12.10;;;4.80;;
33876;SDS011;20166;51.738;7.158;2023-10-08T04:01:17;9.07;;;4.20;;
33876;SDS011;20166;51.738;7.158;2023-10-08T04:04:04;13.97;;;5.07;;
33876;SDS011;20166;51.738;7.158;2023-10-08T04:06:51;10.10;;;4.70;;
33876;SDS011;20166;51.738;7.158;2023-10-08T04:09:40;10.63;;;4.93;;
33876;SDS011;20166;51.738;7.158;2023-10-08T04:12:28;10.83;;;5.87;;
33876;SDS011;20166;51.738;7.158;2023-10-08T04:15:17;8.83;;;4.83;;
33876;SDS011;20166;51.738;7.158;2023-10-08T04:18:04;9.27;;;4.57;;
33876;SDS011;20166;51.738;7.158;2023-10-08T04:20:50;12.83;;;5.40;;
33876;SDS011;20166;51.738;7.158;2023-10-08T04:23:54;10.70;;;4.57;;
33876;SDS011;20166;51.738;7.158;2023-10-08T04:26:42;11.50;;;4.77;;
33876;SDS011;20166;51.738;7.158;2023-10-08T04:29:30;9.17;;;5.20;;
33876;SDS011;20166;51.738;7.158;2023-10-08T04:32:17;11.97;;;5.47;;
33876;SDS011;20166;51.738;7.158;2023-10-08T04:35:09;10.03;;;5.00;;
33876;SDS011;20166;51.738;7.158;2023-10-08T04:37:59;11.13;;;5.37;;
33876;SDS011;20166;51.738;7.158;2023-10-08T04:40:48;11.33;;;5.03;;
33876;SDS011;20166;51.738;7.158;2023-10-08T04:43:36;11.27;;;5.00;;
33876;SDS011;20166;51.738;7.158;2023-10-08T04:46:29;11.43;;;5.00;;
33876;SDS011;20166;51.738;7.158;2023-10-08T04:49:31;11.07;;;5.67;;
33876;SDS011;20166;51.738;7.158;2023-10-08T04:52:19;11.17;;;5.80;;
33876;SDS011;20166;51.738;7.158;2023-10-08T04:55:05;14.93;;;5.30;;
33876;SDS011;20166;51.738;7.158;2023-10-08T04:58:00;14.63;;;5.83;;
33876;SDS011;20166;51.738;7.158;2023-10-08T05:00:50;11.53;;;5.70;;
33876;SDS011;20166;51.738;7.158;2023-10-08T05:03:45;10.50;;;5.00;;
33876;SDS011;20166;51.738;7.158;2023-10-08T05:06:41;10.37;;;5.13;;
33876;SDS011;20166;51.738;7.158;2023-10-08T05:09:45;8.83;;;4.83;;
33876;SDS011;20166;51.738;7.158;2023-10-08T05:12:37;10.67;;;5.03;;
33876;SDS011;20166;51.738;7.158;2023-10-08T05:15:31;12.47;;;5.17;;
33876;SDS011;20166;51.738;7.158;2023-10-08T05:18:26;7.73;;;5.43;;
33876;SDS011;20166;51.738;7.158;2023-10-08T05:21:34;12.00;;;5.33;;
33876;SDS011;20166;51.738;7.158;2023-10-08T05:24:36;14.13;;;5.50;;
33876;SDS011;20166;51.738;7.158;2023-10-08T05:27:23;11.03;;;5.40;;
33876;SDS011;20166;51.738;7.158;2023-10-08T05:30:41;6.23;;;4.40;;
33876;SDS011;20166;51.738;7.158;2023-10-08T05:33:37;8.97;;;4.27;;
33876;SDS011;20166;51.738;7.158;2023-10-08T05:36:46;5.73;;;3.77;;
33876;SDS011;20166;51.738;7.158;2023-10-08T05:39:35;8.27;;;3.20;;
33876;SDS011;20166;51.738;7.158;2023-10-08T05:42:27;6.93;;;3.23;;
33876;SDS011;20166;51.738;7.158;2023-10-08T05:45:16;10.40;;;3.77;;
33876;SDS011;20166;51.738;7.158;2023-10-08T05:48:20;6.13;;;3.23;;
33876;SDS011;20166;51.738;7.158;2023-10-08T05:51:12;7.27;;;3.37;;
33876;SDS011;20166;51.738;7.158;2023-10-08T05:54:10;4.27;;;3.47;;
33876;SDS011;20166;51.738;7.158;2023-10-08T05:57:09;7.23;;;3.60;;
33876;SDS011;20166;51.738;7.158;2023-10-08T06:00:20;8.67;;;3.43;;
33876;SDS011;20166;51.738;7.158;2023-10-08T06:03:31;7.30;;;3.00;;
33876;SDS011;20166;51.738;7.158;2023-10-08T06:06:18;8.17;;;2.50;;
33876;SDS011;20166;51.738;7.158;2023-10-08T06:09:23;4.30;;;2.47;;
33876;SDS011;20166;51.738;7.158;2023-10-08T06:12:20;6.20;;;2.80;;
33876;SDS011;20166;51.738;7.158;2023-10-08T06:15:15;3.50;;;2.57;;
33876;SDS011;20166;51.738;7.158;2023-10-08T06:18:09;5.77;;;2.90;;
33876;SDS011;20166;51.738;7.158;2023-10-08T06:20:56;8.20;;;3.70;;
33876;SDS011;20166;51.738;7.158;2023-10-08T06:23:44;7.67;;;3.80;;
33876;SDS011;20166;51.738;7.158;2023-10-08T06:26:32;4.97;;;3.17;;
33876;SDS011;20166;51.738;7.158;2023-10-08T06:29:19;8.00;;;3.60;;
33876;SDS011;20166;51.738;7.158;2023-10-08T06:32:12;6.37;;;3.20;;
33876;SDS011;20166;51.738;7.158;2023-10-08T06:34:58;12.53;;;3.60;;
33876;SDS011;20166;51.738;7.158;2023-10-08T06:37:47;5.57;;;3.43;;
33876;SDS011;20166;51.738;7.158;2023-10-08T06:40:39;5.63;;;3.30;;
33876;SDS011;20166;51.738;7.158;2023-10-08T06:43:30;7.37;;;3.67;;
33876;SDS011;20166;51.738;7.158;2023-10-08T06:46:19;7.37;;;3.53;;
33876;SDS011;20166;51.738;7.158;2023-10-08T06:49:08;6.63;;;3.80;;
33876;SDS011;20166;51.738;7.158;2023-10-08T06:51:59;4.90;;;3.47;;
33876;SDS011;20166;51.738;7.158;2023-10-08T06:54:49;3.83;;;2.57;;
33876;SDS011;20166;51.738;7.158;2023-10-08T06:57:38;2.63;;;2.10;;
33876;SDS011;20166;51.738;7.158;2023-10-08T07:00:26;2.50;;;2.10;;
33876;SDS011;20166;51.738;7.158;2023-10-08T07:03:24;3.00;;;1.87;;
33876;SDS011;20166;51.738;7.158;2023-10-08T07:06:10;1.90;;;1.70;;
33876;SDS011;20166;51.738;7.158;2023-10-08T07:09:10;1.60;;;1.47;;
33876;SDS011;20166;51.738;7.158;2023-10-08T07:12:07;1.73;;;1.60;;
33876;SDS011;20166;51.738;7.158;2023-10-08T07:14:59;1.80;;;1.60;;
33876;SDS011;20166;51.738;7.158;2023-10-08T07:17:47;1.93;;;1.67;;
33876;SDS011;20166;51.738;7.158;2023-10-08T07:20:36;3.23;;;1.97;;
33876;SDS011;20166;51.738;7.158;2023-10-08T07:23:24;1.70;;;1.50;;
33876;SDS011;20166;51.738;7.158;2023-10-08T07:26:12;1.77;;;1.43;;
33876;SDS011;20166;51.738;7.158;2023-10-08T07:29:03;2.07;;;1.87;;
33876;SDS011;20166;51.738;7.158;2023-10-08T07:31:53;4.07;;;2.37;;
33876;SDS011;20166;51.738;7.158;2023-10-08T07:34:40;2.50;;;2.10;;
33876;SDS011;20166;51.738;7.158;2023-10-08T07:37:29;1.70;;;1.57;;
33876;SDS011;20166;51.738;7.158;2023-10-08T07:40:17;2.90;;;2.30;;
33876;SDS011;20166;51.738;7.158;2023-10-08T07:43:06;2.37;;;2.00;;
33876;SDS011;20166;51.738;7.158;2023-10-08T07:45:53;2.53;;;2.03;;
33876;SDS011;20166;51.738;7.158;2023-10-08T07:48:40;4.03;;;2.00;;
33876;SDS011;20166;51.738;7.158;2023-10-08T07:51:29;1.70;;;1.60;;
33876;SDS011;20166;51.738;7.158;2023-10-08T07:54:15;2.13;;;1.60;;
33876;SDS011;20166;51.738;7.158;2023-10-08T07:57:04;1.90;;;1.57;;
33876;SDS011;20166;51.738;7.158;2023-10-08T07:59:58;1.93;;;1.63;;
33876;SDS011;20166;51.738;7.158;2023-10-08T08:03:03;1.40;;;1.30;;
33876;SDS011;20166;51.738;7.158;2023-10-08T08:05:50;1.50;;;1.40;;
33876;SDS011;20166;51.738;7.158;2023-10-08T08:08:39;1.27;;;1.17;;
33876;SDS011;20166;51.738;7.158;2023-10-08T08:11:25;1.63;;;1.53;;
33876;SDS011;20166;51.738;7.158;2023-10-08T08:14:12;1.17;;;1.10;;
33876;SDS011;20166;51.738;7.158;2023-10-08T08:17:01;1.20;;;1.10;;
33876;SDS011;20166;51.738;7.158;2023-10-08T08:19:58;2.37;;;1.00;;
33876;SDS011;20166;51.738;7.158;2023-10-08T08:22:52;2.20;;;1.40;;
33876;SDS011;20166;51.738;7.158;2023-10-08T08:25:41;4.47;;;1.93;;
33876;SDS011;20166;51.738;7.158;2023-10-08T08:28:51;1.80;;;1.70;;
33876;SDS011;20166;51.738;7.158;2023-10-08T08:31:39;3.27;;;2.13;;
33876;SDS011;20166;51.738;7.158;2023-10-08T08:34:31;1.73;;;1.63;;
33876;SDS011;20166;51.738;7.158;2023-10-08T08:37:17;1.77;;;1.40;;
33876;SDS011;20166;51.738;7.158;2023-10-08T08:40:04;4.40;;;1.20;;
33876;SDS011;20166;51.738;7.158;2023-10-08T08:42:54;1.27;;;1.17;;
33876;SDS011;20166;51.738;7.158;2023-10-08T08:45:43;1.57;;;1.37;;
33876;SDS011;20166;51.738;7.158;2023-10-08T08:48:34;1.40;;;1.30;;
33876;SDS011;20166;51.738;7.158;2023-10-08T08:51:23;2.80;;;1.20;;
33876;SDS011;20166;51.738;7.158;2023-10-08T08:54:09;1.20;;;1.10;;
33876;SDS011;20166;51.738;7.158;2023-10-08T08:56:57;1.30;;;1.20;;
33876;SDS011;20166;51.738;7.158;2023-10-08T08:59:49;2.03;;;1.40;;
33876;SDS011;20166;51.738;7.158;2023-10-08T09:02:39;2.63;;;1.90;;
33876;SDS011;20166;51.738;7.158;2023-10-08T09:05:26;2.30;;;1.60;;
33876;SDS011;20166;51.738;7.158;2023-10-08T09:08:20;1.53;;;1.37;;
33876;SDS011;20166;51.738;7.158;2023-10-08T09:11:13;1.97;;;1.60;;
33876;SDS011;20166;51.738;7.158;2023-10-08T09:14:01;3.30;;;2.27;;
33876;SDS011;20166;51.738;7.158;2023-10-08T09:16:49;3.40;;;1.50;;
33876;SDS011;20166;51.738;7.158;2023-10-08T09:19:36;1.93;;;1.20;;
33876;SDS011;20166;51.738;7.158;2023-10-08T09:22:23;1.60;;;1.20;;
33876;SDS011;20166;51.738;7.158;2023-10-08T09:25:10;4.63;;;1.60;;
33876;SDS011;20166;51.738;7.158;2023-10-08T09:27:59;6.60;;;2.20;;
33876;SDS011;20166;51.738;7.158;2023-10-08T09:30:45;3.83;;;1.70;;
33876;SDS011;20166;51.738;7.158;2023-10-08T09:33:36;5.17;;;1.40;;
33876;SDS011;20166;51.738;7.158;2023-10-08T09:36:22;7.30;;;2.13;;
33876;SDS011;20166;51.738;7.158;2023-10-08T09:39:16;2.93;;;1.50;;
33876;SDS011;20166;51.738;7.158;2023-10-08T09:42:08;11.40;;;1.70;;
33876;SDS011;20166;51.738;7.158;2023-10-08T09:44:56;5.03;;;1.97;;
33876;SDS011;20166;51.738;7.158;2023-10-08T09:47:49;3.87;;;1.40;;
33876;SDS011;20166;51.738;7.158;2023-10-08T09:50:41;4.47;;;1.90;;
33876;SDS011;20166;51.738;7.158;2023-10-08T09:53:31;4.87;;;1.90;;
33876;SDS011;20166;51.738;7.158;2023-10-08T09:56:27;8.70;;;1.93;;
33876;SDS011;20166;51.738;7.158;2023-10-08T09:59:15;9.93;;;2.00;;
33876;SDS011;20166;51.738;7.158;2023-10-08T10:02:04;7.07;;;1.83;;
33876;SDS011;20166;51.738;7.158;2023-10-08T10:04:54;3.87;;;1.50;;
33876;SDS011;20166;51.738;7.158;2023-10-08T10:07:42;4.30;;;1.50;;
33876;SDS011;20166;51.738;7.158;2023-10-08T10:10:29;3.97;;;1.90;;
33876;SDS011;20166;51.738;7.158;2023-10-08T10:13:16;6.17;;;1.80;;
33876;SDS011;20166;51.738;7.158;2023-10-08T10:16:04;5.93;;;1.40;;
33876;SDS011;20166;51.738;7.158;2023-10-08T10:18:54;5.97;;;1.60;;
33876;SDS011;20166;51.738;7.158;2023-10-08T10:21:43;5.83;;;1.87;;
33876;SDS011;20166;51.738;7.158;2023-10-08T10:24:35;4.27;;;1.70;;
33876;SDS011;20166;51.738;7.158;2023-10-08T10:27:22;4.10;;;1.70;;
33876;SDS011;20166;51.738;7.158;2023-10-08T10:30:09;5.50;;;1.80;;
33876;SDS011;20166;51.738;7.158;2023-10-08T10:33:01;4.70;;;2.53;;
33876;SDS011;20166;51.738;7.158;2023-10-08T10:35:51;7.50;;;2.20;;
33876;SDS011;20166;51.738;7.158;2023-10-08T10:38:38;5.73;;;1.97;;
33876;SDS011;20166;51.738;7.158;2023-10-08T10:41:28;3.97;;;1.90;;
33876;SDS011;20166;51.738;7.158;2023-10-08T10:44:14;6.77;;;2.10;;
33876;SDS011;20166;51.738;7.158;2023-10-08T10:47:01;6.23;;;2.20;;
33876;SDS011;20166;51.738;7.158;2023-10-08T10:50:06;4.50;;;2.20;;
33876;SDS011;20166;51.738;7.158;2023-10-08T10:53:17;8.33;;;2.60;;
33876;SDS011;20166;51.738;7.158;2023-10-08T10:56:04;5.63;;;2.70;;
33876;SDS011;20166;51.738;7.158;2023-10-08T10:58:59;4.90;;;3.00;;
33876;SDS011;20166;51.738;7.158;2023-10-08T11:01:51;4.83;;;2.37;;
33876;SDS011;20166;51.738;7.158;2023-10-08T11:04:38;5.00;;;2.80;;
33876;SDS011;20166;51.738;7.158;2023-10-08T11:07:32;5.43;;;3.23;;
33876;SDS011;20166;51.738;7.158;2023-10-08T11:10:19;5.80;;;3.30;;
33876;SDS011;20166;51.738;7.158;2023-10-08T11:13:09;5.87;;;3.27;;
33876;SDS011;20166;51.738;7.158;2023-10-08T11:16:02;5.87;;;2.60;;
33876;SDS011;20166;51.738;7.158;2023-10-08T11:18:50;7.50;;;2.77;;
33876;SDS011;20166;51.738;7.158;2023-10-08T11:21:48;5.17;;;2.63;;
33876;SDS011;20166;51.738;7.158;2023-10-08T11:24:36;6.07;;;2.70;;
33876;SDS011;20166;51.738;7.158;2023-10-08T11:27:27;4.33;;;2.30;;
33876;SDS011;20166;51.738;7.158;2023-10-08T11:30:14;5.00;;;2.50;;
33876;SDS011;20166;51.738;7.158;2023-10-08T11:33:04;7.47;;;2.70;;
33876;SDS011;20166;51.738;7.158;2023-10-08T11:35:55;5.93;;;2.40;;
33876;SDS011;20166;51.738;7.158;2023-10-08T11:38:43;6.20;;;2.53;;
33876;SDS011;20166;51.738;7.158;2023-10-08T11:41:33;4.03;;;1.93;;
33876;SDS011;20166;51.738;7.158;2023-10-08T11:44:34;2.83;;;1.50;;
33876;SDS011;20166;51.738;7.158;2023-10-08T11:47:22;2.63;;;1.40;;
33876;SDS011;20166;51.738;7.158;2023-10-08T11:50:11;3.40;;;1.53;;
33876;SDS011;20166;51.738;7.158;2023-10-08T11:53:02;2.60;;;1.37;;
33876;SDS011;20166;51.738;7.158;2023-10-08T11:55:50;5.33;;;1.40;;
33876;SDS011;20166;51.738;7.158;2023-10-08T11:58:41;3.07;;;1.40;;
33876;SDS011;20166;51.738;7.158;2023-10-08T12:01:29;3.60;;;1.30;;
33876;SDS011;20166;51.738;7.158;2023-10-08T12:04:20;4.00;;;1.33;;
33876;SDS011;20166;51.738;7.158;2023-10-08T12:07:09;4.07;;;1.57;;
33876;SDS011;20166;51.738;7.158;2023-10-08T12:09:55;3.63;;;1.20;;
33876;SDS011;20166;51.738;7.158;2023-10-08T12:12:42;2.70;;;1.20;;
33876;SDS011;20166;51.738;7.158;2023-10-08T12:15:31;5.27;;;1.33;;
33876;SDS011;20166;51.738;7.158;2023-10-08T12:18:23;3.70;;;1.60;;
33876;SDS011;20166;51.738;7.158;2023-10-08T12:21:10;4.80;;;1.30;;
33876;SDS011;20166;51.738;7.158;2023-10-08T12:24:01;4.07;;;1.47;;
33876;SDS011;20166;51.738;7.158;2023-10-08T12:26:50;3.73;;;1.27;;
33876;SDS011;20166;51.738;7.158;2023-10-08T12:29:37;6.07;;;0.97;;
33876;SDS011;20166;51.738;7.158;2023-10-08T12:32:23;1.27;;;1.03;;
33876;SDS011;20166;51.738;7.158;2023-10-08T12:35:11;6.47;;;1.43;;
33876;SDS011;20166;51.738;7.158;2023-10-08T12:37:58;4.33;;;1.17;;
33876;SDS011;20166;51.738;7.158;2023-10-08T12:40:46;2.73;;;1.10;;
33876;SDS011;20166;51.738;7.158;2023-10-08T12:43:39;2.30;;;1.20;;
33876;SDS011;20166;51.738;7.158;2023-10-08T12:46:27;1.77;;;1.10;;
33876;SDS011;20166;51.738;7.158;2023-10-08T12:49:16;2.87;;;1.20;;
33876;SDS011;20166;51.738;7.158;2023-10-08T12:52:05;3.13;;;1.17;;
33876;SDS011;20166;51.738;7.158;2023-10-08T12:54:54;1.57;;;0.90;;
33876;SDS011;20166;51.738;7.158;2023-10-08T12:57:49;2.67;;;1.00;;
33876;SDS011;20166;51.738;7.158;2023-10-08T13:00:40;3.13;;;1.03;;
33876;SDS011;20166;51.738;7.158;2023-10-08T13:03:26;1.50;;;1.20;;
33876;SDS011;20166;51.738;7.158;2023-10-08T13:06:17;5.10;;;1.57;;
33876;SDS011;20166;51.738;7.158;2023-10-08T13:09:08;7.33;;;2.30;;
33876;SDS011;20166;51.738;7.158;2023-10-08T13:11:57;5.37;;;2.57;;
33876;SDS011;20166;51.738;7.158;2023-10-08T13:14:46;3.27;;;1.60;;
33876;SDS011;20166;51.738;7.158;2023-10-08T13:17:32;3.53;;;1.47;;
33876;SDS011;20166;51.738;7.158;2023-10-08T13:20:19;1.47;;;1.10;;
33876;SDS011;20166;51.738;7.158;2023-10-08T13:23:06;4.47;;;1.60;;
33876;SDS011;20166;51.738;7.158;2023-10-08T13:25:53;4.83;;;2.27;;
33876;SDS011;20166;51.738;7.158;2023-10-08T13:28:40;4.27;;;1.77;;
33876;SDS011;20166;51.738;7.158;2023-10-08T13:31:28;3.40;;;1.30;;
33876;SDS011;20166;51.738;7.158;2023-10-08T13:34:14;3.70;;;1.10;;
33876;SDS011;20166;51.738;7.158;2023-10-08T13:37:01;5.00;;;1.17;;
33876;SDS011;20166;51.738;7.158;2023-10-08T13:39:48;4.03;;;1.07;;
33876;SDS011;20166;51.738;7.158;2023-10-08T13:42:34;3.33;;;1.30;;
33876;SDS011;20166;51.738;7.158;2023-10-08T13:45:20;3.90;;;1.00;;
33876;SDS011;20166;51.738;7.158;2023-10-08T13:48:13;3.07;;;0.90;;
33876;SDS011;20166;51.738;7.158;2023-10-08T13:51:00;2.47;;;0.83;;
33876;SDS011;20166;51.738;7.158;2023-10-08T13:53:48;1.37;;;0.90;;
33876;SDS011;20166;51.738;7.158;2023-10-08T13:56:38;2.57;;;1.00;;
33876;SDS011;20166;51.738;7.158;2023-10-08T13:59:27;2.37;;;1.00;;
33876;SDS011;20166;51.738;7.158;2023-10-08T14:02:17;2.27;;;1.03;;
33876;SDS011;20166;51.738;7.158;2023-10-08T14:05:08;2.40;;;1.30;;
33876;SDS011;20166;51.738;7.158;2023-10-08T14:07:55;2.07;;;1.10;;
33876;SDS011;20166;51.738;7.158;2023-10-08T14:10:43;2.90;;;1.00;;
33876;SDS011;20166;51.738;7.158;2023-10-08T14:13:29;3.00;;;1.00;;
33876;SDS011;20166;51.738;7.158;2023-10-08T14:16:16;2.20;;;1.00;;
33876;SDS011;20166;51.738;7.158;2023-10-08T14:19:03;3.57;;;1.03;;
33876;SDS011;20166;51.738;7.158;2023-10-08T14:21:52;3.27;;;1.27;;
33876;SDS011;20166;51.738;7.158;2023-10-08T14:24:45;3.27;;;1.10;;
33876;SDS011;20166;51.738;7.158;2023-10-08T14:27:32;1.93;;;1.10;;
33876;SDS011;20166;51.738;7.158;2023-10-08T14:30:24;4.60;;;1.37;;
33876;SDS011;20166;51.738;7.158;2023-10-08T14:33:15;2.43;;;1.10;;
33876;SDS011;20166;51.738;7.158;2023-10-08T14:36:09;2.43;;;1.10;;
33876;SDS011;20166;51.738;7.158;2023-10-08T14:39:15;2.77;;;1.00;;
33876;SDS011;20166;51.738;7.158;2023-10-08T14:42:19;3.23;;;1.00;;
33876;SDS011;20166;51.738;7.158;2023-10-08T14:45:23;3.33;;;1.13;;
33876;SDS011;20166;51.738;7.158;2023-10-08T14:48:11;1.83;;;1.10;;
33876;SDS011;20166;51.738;7.158;2023-10-08T14:50:59;1.73;;;1.10;;
33876;SDS011;20166;51.738;7.158;2023-10-08T14:53:46;4.63;;;0.90;;
33876;SDS011;20166;51.738;7.158;2023-10-08T14:56:34;2.37;;;1.10;;
33876;SDS011;20166;51.738;7.158;2023-10-08T14:59:21;3.90;;;2.00;;
33876;SDS011;20166;51.738;7.158;2023-10-08T15:02:08;5.83;;;2.27;;
33876;SDS011;20166;51.738;7.158;2023-10-08T15:04:55;7.47;;;2.30;;
33876;SDS011;20166;51.738;7.158;2023-10-08T15:07:42;4.13;;;1.80;;
33876;SDS011;20166;51.738;7.158;2023-10-08T15:10:28;2.33;;;1.20;;
33876;SDS011;20166;51.738;7.158;2023-10-08T15:13:16;3.50;;;1.33;;
33876;SDS011;20166;51.738;7.158;2023-10-08T15:16:03;3.17;;;1.30;;
33876;SDS011;20166;51.738;7.158;2023-10-08T15:18:49;2.67;;;1.13;;
33876;SDS011;20166;51.738;7.158;2023-10-08T15:21:36;2.00;;;1.17;;
33876;SDS011;20166;51.738;7.158;2023-10-08T15:24:22;3.43;;;1.17;;
33876;SDS011;20166;51.738;7.158;2023-10-08T15:27:09;2.90;;;1.30;;
33876;SDS011;20166;51.738;7.158;2023-10-08T15:29:57;2.50;;;1.23;;
33876;SDS011;20166;51.738;7.158;2023-10-08T15:32:44;1.83;;;1.23;;
33876;SDS011;20166;51.738;7.158;2023-10-08T15:35:32;2.60;;;1.27;;
33876;SDS011;20166;51.738;7.158;2023-10-08T15:38:18;2.07;;;1.20;;
33876;SDS011;20166;51.738;7.158;2023-10-08T15:41:05;6.03;;;2.83;;
33876;SDS011;20166;51.738;7.158;2023-10-08T15:43:51;6.33;;;2.90;;
33876;SDS011;20166;51.738;7.158;2023-10-08T15:46:40;2.77;;;1.80;;
33876;SDS011;20166;51.738;7.158;2023-10-08T15:49:26;3.93;;;1.83;;
33876;SDS011;20166;51.738;7.158;2023-10-08T15:52:13;2.53;;;1.90;;
33876;SDS011;20166;51.738;7.158;2023-10-08T15:55:02;3.37;;;2.50;;
33876;SDS011;20166;51.738;7.158;2023-10-08T15:57:49;5.50;;;2.40;;
33876;SDS011;20166;51.738;7.158;2023-10-08T16:00:36;5.37;;;2.27;;
33876;SDS011;20166;51.738;7.158;2023-10-08T16:03:24;4.27;;;2.40;;
33876;SDS011;20166;51.738;7.158;2023-10-08T16:06:10;3.43;;;2.17;;
33876;SDS011;20166;51.738;7.158;2023-10-08T16:08:57;5.20;;;2.63;;
33876;SDS011;20166;51.738;7.158;2023-10-08T16:11:43;7.00;;;3.30;;
33876;SDS011;20166;51.738;7.158;2023-10-08T16:14:29;4.40;;;2.97;;
33876;SDS011;20166;51.738;7.158;2023-10-08T16:17:16;4.43;;;2.20;;
33876;SDS011;20166;51.738;7.158;2023-10-08T16:20:05;3.33;;;1.90;;
33876;SDS011;20166;51.738;7.158;2023-10-08T16:22:58;4.30;;;2.27;;
33876;SDS011;20166;51.738;7.158;2023-10-08T16:25:45;4.53;;;2.17;;
33876;SDS011;20166;51.738;7.158;2023-10-08T16:28:33;4.17;;;2.30;;
33876;SDS011;20166;51.738;7.158;2023-10-08T16:31:20;4.17;;;2.17;;
33876;SDS011;20166;51.738;7.158;2023-10-08T16:34:06;2.83;;;1.80;;
33876;SDS011;20166;51.738;7.158;2023-10-08T16:36:55;3.43;;;2.13;;
33876;SDS011;20166;51.738;7.158;2023-10-08T16:39:42;4.60;;;2.30;;
33876;SDS011;20166;51.738;7.158;2023-10-08T16:42:28;3.47;;;2.27;;
33876;SDS011;20166;51.738;7.158;2023-10-08T16:45:14;4.03;;;1.97;;
33876;SDS011;20166;51.738;7.158;2023-10-08T16:48:03;3.67;;;2.00;;
33876;SDS011;20166;51.738;7.158;2023-10-08T16:50:50;4.33;;;1.73;;
33876;SDS011;20166;51.738;7.158;2023-10-08T16:53:38;3.47;;;1.80;;
33876;SDS011;20166;51.738;7.158;2023-10-08T16:56:24;3.67;;;2.00;;
33876;SDS011;20166;51.738;7.158;2023-10-08T16:59:10;6.77;;;1.90;;
33876;SDS011;20166;51.738;7.158;2023-10-08T17:01:59;3.97;;;1.63;;